sensor_id;sensor_type;location;lat;lon;timestamp;pressure;altitude;pressure_sealevel;temperature;humidity
67099;BME280;54288;53.046;5.668;2023-06-10T00:00:43;101828.72;;;16.15;100.00
67099;BME280;54288;53.046;5.668;2023-06-10T00:03:09;101819.09;;;16.12;100.00
67099;BME280;54288;53.046;5.668;2023-06-10T00:05:35;101827.16;;;16.08;100.00
67099;BME280;54288;53.046;5.668;2023-06-10T00:08:02;101821.09;;;16.04;100.00
67099;BME280;54288;53.046;5.668;2023-06-10T00:10:35;101825.31;;;16.10;100.00
67099;BME280;54288;53.046;5.668;2023-06-10T00:13:02;101826.28;;;16.07;100.00
67099;BME280;54288;53.046;5.668;2023-06-10T00:15:29;101834.16;;;16.09;100.00
67099;BME280;54288;53.046;5.668;2023-06-10T00:17:55;101826.38;;;16.04;100.00
67099;BME280;54288;53.046;5.668;2023-06-10T00:20:21;101826.47;;;16.00;100.00
67099;BME280;54288;53.046;5.668;2023-06-10T00:22:50;101830.03;;;15.99;100.00
67099;BME280;54288;53.046;5.668;2023-06-10T00:25:16;101828.44;;;15.93;100.00
67099;BME280;54288;53.046;5.668;2023-06-10T00:27:42;101824.06;;;15.92;100.00
67099;BME280;54288;53.046;5.668;2023-06-10T00:30:09;101829.38;;;15.91;100.00
67099;BME280;54288;53.046;5.668;2023-06-10T00:32:36;101833.88;;;15.87;100.00
67099;BME280;54288;53.046;5.668;2023-06-10T00:35:03;101830.47;;;15.84;100.00
67099;BME280;54288;53.046;5.668;2023-06-10T00:37:30;101833.97;;;15.83;100.00
67099;BME280;54288;53.046;5.668;2023-06-10T00:39:57;101836.72;;;15.80;100.00
67099;BME280;54288;53.046;5.668;2023-06-10T00:42:24;101842.00;;;15.80;100.00
67099;BME280;54288;53.046;5.668;2023-06-10T00:44:51;101841.22;;;15.76;100.00
67099;BME280;54288;53.046;5.668;2023-06-10T00:47:17;101840.44;;;15.73;100.00
67099;BME280;54288;53.046;5.668;2023-06-10T00:49:45;101845.75;;;15.71;100.00
67099;BME280;54288;53.046;5.668;2023-06-10T00:52:12;101832.56;;;15.70;100.00
67099;BME280;54288;53.046;5.668;2023-06-10T00:54:40;101843.16;;;15.68;100.00
67099;BME280;54288;53.046;5.668;2023-06-10T00:57:08;101842.34;;;15.66;100.00
67099;BME280;54288;53.046;5.668;2023-06-10T00:59:34;101844.16;;;15.64;100.00
67099;BME280;54288;53.046;5.668;2023-06-10T01:02:00;101845.13;;;15.62;100.00
67099;BME280;54288;53.046;5.668;2023-06-10T01:04:29;101842.53;;;15.59;100.00
67099;BME280;54288;53.046;5.668;2023-06-10T01:07:23;101837.41;;;15.53;100.00
67099;BME280;54288;53.046;5.668;2023-06-10T01:10:01;101842.63;;;15.56;100.00
67099;BME280;54288;53.046;5.668;2023-06-10T01:12:55;101841.75;;;15.55;100.00
67099;BME280;54288;53.046;5.668;2023-06-10T01:15:22;101842.78;;;15.50;100.00
67099;BME280;54288;53.046;5.668;2023-06-10T01:18:01;101844.41;;;15.54;100.00
67099;BME280;54288;53.046;5.668;2023-06-10T01:20:31;101853.19;;;15.56;100.00
67099;BME280;54288;53.046;5.668;2023-06-10T01:22:59;101849.00;;;15.47;100.00
67099;BME280;54288;53.046;5.668;2023-06-10T01:25:27;101848.09;;;15.48;100.00
67099;BME280;54288;53.046;5.668;2023-06-10T01:28:07;101847.34;;;15.43;100.00
67099;BME280;54288;53.046;5.668;2023-06-10T01:31:06;101849.06;;;15.44;100.00
67099;BME280;54288;53.046;5.668;2023-06-10T01:33:37;101850.94;;;15.39;100.00
67099;BME280;54288;53.046;5.668;2023-06-10T01:36:04;101848.28;;;15.41;100.00
67099;BME280;54288;53.046;5.668;2023-06-10T01:38:36;101850.03;;;15.40;100.00
67099;BME280;54288;53.046;5.668;2023-06-10T01:41:06;101845.69;;;15.38;100.00
67099;BME280;54288;53.046;5.668;2023-06-10T01:43:38;101852.75;;;15.37;100.00
67099;BME280;54288;53.046;5.668;2023-06-10T01:46:04;101848.41;;;15.35;100.00
67099;BME280;54288;53.046;5.668;2023-06-10T01:48:31;101848.44;;;15.33;100.00
67099;BME280;54288;53.046;5.668;2023-06-10T01:50:56;101848.53;;;15.29;100.00
67099;BME280;54288;53.046;5.668;2023-06-10T01:53:22;101840.75;;;15.23;100.00
67099;BME280;54288;53.046;5.668;2023-06-10T01:55:48;101852.13;;;15.25;100.00
67099;BME280;54288;53.046;5.668;2023-06-10T01:58:16;101846.09;;;15.20;100.00
67099;BME280;54288;53.046;5.668;2023-06-10T02:00:42;101849.66;;;15.19;100.00
67099;BME280;54288;53.046;5.668;2023-06-10T02:03:08;101841.88;;;15.13;100.00
67099;BME280;54288;53.046;5.668;2023-06-10T02:05:35;101845.34;;;15.15;100.00
67099;BME280;54288;53.046;5.668;2023-06-10T02:08:00;101840.19;;;15.09;100.00
67099;BME280;54288;53.046;5.668;2023-06-10T02:10:26;101848.19;;;15.07;100.00
67099;BME280;54288;53.046;5.668;2023-06-10T02:12:52;101851.78;;;15.03;100.00
67099;BME280;54288;53.046;5.668;2023-06-10T02:15:18;101848.50;;;14.92;100.00
67099;BME280;54288;53.046;5.668;2023-06-10T02:17:46;101845.06;;;14.89;100.00
67099;BME280;54288;53.046;5.668;2023-06-10T02:20:12;101856.53;;;14.88;100.00
67099;BME280;54288;53.046;5.668;2023-06-10T02:22:39;101849.59;;;14.84;100.00
67099;BME280;54288;53.046;5.668;2023-06-10T02:25:07;101841.81;;;14.78;100.00
67099;BME280;54288;53.046;5.668;2023-06-10T02:27:33;101854.84;;;14.84;100.00
67099;BME280;54288;53.046;5.668;2023-06-10T02:30:00;101860.19;;;14.81;100.00
67099;BME280;54288;53.046;5.668;2023-06-10T02:32:26;101853.38;;;14.71;100.00
67099;BME280;54288;53.046;5.668;2023-06-10T02:34:52;101850.81;;;14.68;100.00
67099;BME280;54288;53.046;5.668;2023-06-10T02:37:21;101860.44;;;14.69;100.00
67099;BME280;54288;53.046;5.668;2023-06-10T02:39:49;101856.19;;;14.63;100.00
67099;BME280;54288;53.046;5.668;2023-06-10T02:42:15;101858.84;;;14.62;100.00
67099;BME280;54288;53.046;5.668;2023-06-10T02:44:41;101871.13;;;14.63;100.00
67099;BME280;54288;53.046;5.668;2023-06-10T02:47:11;101862.50;;;14.56;100.00
67099;BME280;54288;53.046;5.668;2023-06-10T02:49:38;101859.94;;;14.52;100.00
67099;BME280;54288;53.046;5.668;2023-06-10T02:52:04;101855.56;;;14.51;100.00
67099;BME280;54288;53.046;5.668;2023-06-10T02:54:30;101861.75;;;14.50;100.00
67099;BME280;54288;53.046;5.668;2023-06-10T02:56:56;101874.88;;;14.51;100.00
67099;BME280;54288;53.046;5.668;2023-06-10T02:59:24;101871.44;;;14.48;100.00
67099;BME280;54288;53.046;5.668;2023-06-10T03:04:53;101848.72;;;14.41;100.00
67099;BME280;54288;53.046;5.668;2023-06-10T03:07:19;101860.13;;;14.43;100.00
67099;BME280;54288;53.046;5.668;2023-06-10T03:09:47;101866.31;;;14.42;100.00
67099;BME280;54288;53.046;5.668;2023-06-10T03:25:44;101867.63;;;14.20;100.00
67099;BME280;54288;53.046;5.668;2023-06-10T03:28:14;101865.88;;;14.19;100.00
67099;BME280;54288;53.046;5.668;2023-06-10T03:30:42;101859.72;;;14.17;100.00
67099;BME280;54288;53.046;5.668;2023-06-10T03:33:08;101858.91;;;14.15;100.00
67099;BME280;54288;53.046;5.668;2023-06-10T03:38:34;101856.25;;;14.16;100.00
67099;BME280;54288;53.046;5.668;2023-06-10T03:55:43;101863.38;;;14.10;100.00
67099;BME280;54288;53.046;5.668;2023-06-10T04:31:28;101896.00;;;14.50;100.00
67099;BME280;54288;53.046;5.668;2023-06-10T04:36:58;101891.50;;;14.55;100.00
67099;BME280;54288;53.046;5.668;2023-06-10T04:39:23;101895.84;;;14.59;100.00
67099;BME280;54288;53.046;5.668;2023-06-10T04:41:50;101905.34;;;14.66;100.00
67099;BME280;54288;53.046;5.668;2023-06-10T04:44:16;101897.41;;;14.67;100.00
67099;BME280;54288;53.046;5.668;2023-06-10T04:46:42;101899.06;;;14.71;100.00
67099;BME280;54288;53.046;5.668;2023-06-10T04:49:08;101892.03;;;14.72;100.00
67099;BME280;54288;53.046;5.668;2023-06-10T04:51:34;101884.94;;;14.74;100.00
67099;BME280;54288;53.046;5.668;2023-06-10T04:54:01;101895.38;;;14.80;100.00
67099;BME280;54288;53.046;5.668;2023-06-10T04:59:26;101903.00;;;14.93;100.00
67099;BME280;54288;53.046;5.668;2023-06-10T05:04:41;101900.00;;;15.10;100.00
67099;BME280;54288;53.046;5.668;2023-06-10T05:07:07;101904.16;;;15.20;100.00
67099;BME280;54288;53.046;5.668;2023-06-10T05:09:33;101906.66;;;15.26;100.00
67099;BME280;54288;53.046;5.668;2023-06-10T05:11:59;101899.50;;;15.31;100.00
67099;BME280;54288;53.046;5.668;2023-06-10T05:14:25;101908.09;;;15.40;100.00
67099;BME280;54288;53.046;5.668;2023-06-10T05:16:52;101910.44;;;15.89;100.00
67099;BME280;54288;53.046;5.668;2023-06-10T05:19:18;101912.50;;;16.75;99.50
67099;BME280;54288;53.046;5.668;2023-06-10T05:21:45;101903.53;;;17.39;93.60
67099;BME280;54288;53.046;5.668;2023-06-10T05:24:11;101906.22;;;17.91;89.56
67099;BME280;54288;53.046;5.668;2023-06-10T05:26:37;101919.25;;;18.23;87.31
67099;BME280;54288;53.046;5.668;2023-06-10T05:29:04;101900.84;;;18.67;84.55
67099;BME280;54288;53.046;5.668;2023-06-10T05:31:30;101900.91;;;18.89;81.47
67099;BME280;54288;53.046;5.668;2023-06-10T05:33:56;101907.06;;;19.12;81.47
67099;BME280;54288;53.046;5.668;2023-06-10T05:36:21;101907.38;;;19.71;79.18
67099;BME280;54288;53.046;5.668;2023-06-10T05:38:48;101901.06;;;19.52;77.96
67099;BME280;54288;53.046;5.668;2023-06-10T05:41:13;101905.44;;;19.96;74.84
67099;BME280;54288;53.046;5.668;2023-06-10T05:43:39;101907.22;;;20.17;75.64
67099;BME280;54288;53.046;5.668;2023-06-10T05:46:05;101917.25;;;20.50;74.24
67099;BME280;54288;53.046;5.668;2023-06-10T05:48:31;101908.59;;;20.65;71.02
67099;BME280;54288;53.046;5.668;2023-06-10T05:50:56;101917.44;;;20.46;72.17
67099;BME280;54288;53.046;5.668;2023-06-10T05:53:22;101908.38;;;20.10;73.91
67099;BME280;54288;53.046;5.668;2023-06-10T05:55:48;101908.59;;;20.04;75.39
67099;BME280;54288;53.046;5.668;2023-06-10T05:58:14;101904.81;;;20.51;75.10
67099;BME280;54288;53.046;5.668;2023-06-10T06:00:40;101910.69;;;20.57;72.32
67099;BME280;54288;53.046;5.668;2023-06-10T06:03:07;101899.69;;;20.26;74.50
67099;BME280;54288;53.046;5.668;2023-06-10T06:05:34;101906.81;;;20.64;73.77
67099;BME280;54288;53.046;5.668;2023-06-10T06:08:18;101913.19;;;20.42;75.08
67099;BME280;54288;53.046;5.668;2023-06-10T06:10:45;101895.03;;;20.90;72.15
67099;BME280;54288;53.046;5.668;2023-06-10T06:13:11;101903.13;;;21.61;67.44
67099;BME280;54288;53.046;5.668;2023-06-10T06:15:36;101900.97;;;21.69;65.77
67099;BME280;54288;53.046;5.668;2023-06-10T06:18:02;101902.31;;;21.42;69.83
67099;BME280;54288;53.046;5.668;2023-06-10T06:20:28;101901.44;;;21.23;68.91
67099;BME280;54288;53.046;5.668;2023-06-10T06:22:54;101905.16;;;21.56;65.60
67099;BME280;54288;53.046;5.668;2023-06-10T06:25:20;101900.25;;;21.47;65.89
67099;BME280;54288;53.046;5.668;2023-06-10T06:27:45;101905.09;;;21.39;67.27
67099;BME280;54288;53.046;5.668;2023-06-10T06:30:11;101903.63;;;21.69;67.65
67099;BME280;54288;53.046;5.668;2023-06-10T06:32:37;101907.44;;;21.63;66.13
67099;BME280;54288;53.046;5.668;2023-06-10T06:35:03;101905.59;;;21.47;67.27
67099;BME280;54288;53.046;5.668;2023-06-10T06:37:30;101900.69;;;22.09;66.78
67099;BME280;54288;53.046;5.668;2023-06-10T06:40:13;101906.03;;;22.60;63.16
67099;BME280;54288;53.046;5.668;2023-06-10T06:42:38;101897.13;;;22.44;63.46
67099;BME280;54288;53.046;5.668;2023-06-10T06:45:35;101898.56;;;22.32;64.25
67099;BME280;54288;53.046;5.668;2023-06-10T06:48:01;101894.75;;;22.04;63.88
67099;BME280;54288;53.046;5.668;2023-06-10T06:50:26;101895.66;;;22.37;66.05
67099;BME280;54288;53.046;5.668;2023-06-10T06:52:52;101892.88;;;22.72;61.51
67099;BME280;54288;53.046;5.668;2023-06-10T06:55:18;101894.88;;;22.35;62.76
67099;BME280;54288;53.046;5.668;2023-06-10T06:57:43;101899.97;;;22.39;65.43
67099;BME280;54288;53.046;5.668;2023-06-10T07:00:09;101896.16;;;22.45;62.06
67099;BME280;54288;53.046;5.668;2023-06-10T07:02:35;101897.38;;;22.38;62.23
67099;BME280;54288;53.046;5.668;2023-06-10T07:05:01;101902.56;;;22.41;63.03
67099;BME280;54288;53.046;5.668;2023-06-10T07:07:27;101905.47;;;22.70;61.09
67099;BME280;54288;53.046;5.668;2023-06-10T07:09:53;101902.28;;;22.13;61.97
67099;BME280;54288;53.046;5.668;2023-06-10T07:12:19;101901.63;;;21.74;63.69
67099;BME280;54288;53.046;5.668;2023-06-10T07:14:44;101899.22;;;22.03;66.71
67099;BME280;54288;53.046;5.668;2023-06-10T07:17:10;101894.38;;;22.78;64.27
67099;BME280;54288;53.046;5.668;2023-06-10T07:19:36;101898.34;;;22.54;62.00
67099;BME280;54288;53.046;5.668;2023-06-10T07:22:01;101895.56;;;22.88;63.22
67099;BME280;54288;53.046;5.668;2023-06-10T07:24:27;101911.56;;;23.05;60.47
67099;BME280;54288;53.046;5.668;2023-06-10T07:26:53;101909.06;;;23.02;62.48
67099;BME280;54288;53.046;5.668;2023-06-10T07:29:18;101906.09;;;23.23;63.16
67099;BME280;54288;53.046;5.668;2023-06-10T07:31:44;101907.69;;;22.95;61.72
67099;BME280;54288;53.046;5.668;2023-06-10T07:34:10;101906.94;;;22.76;63.92
67099;BME280;54288;53.046;5.668;2023-06-10T07:36:35;101918.03;;;23.01;62.44
67099;BME280;54288;53.046;5.668;2023-06-10T07:39:02;101907.72;;;22.78;60.64
67099;BME280;54288;53.046;5.668;2023-06-10T07:41:28;101919.41;;;23.08;59.21
67099;BME280;54288;53.046;5.668;2023-06-10T07:43:53;101910.25;;;22.64;62.02
67099;BME280;54288;53.046;5.668;2023-06-10T07:46:23;101908.16;;;23.34;58.90
67099;BME280;54288;53.046;5.668;2023-06-10T07:48:49;101920.72;;;23.63;57.76
67099;BME280;54288;53.046;5.668;2023-06-10T07:51:16;101918.81;;;23.96;56.75
67099;BME280;54288;53.046;5.668;2023-06-10T07:53:42;101920.72;;;23.78;57.10
67099;BME280;54288;53.046;5.668;2023-06-10T07:56:08;101917.94;;;23.80;56.37
67099;BME280;54288;53.046;5.668;2023-06-10T07:58:34;101923.78;;;24.17;53.63
67099;BME280;54288;53.046;5.668;2023-06-10T08:00:59;101922.44;;;23.95;54.38
67099;BME280;54288;53.046;5.668;2023-06-10T08:03:25;101920.13;;;23.89;54.06
67099;BME280;54288;53.046;5.668;2023-06-10T08:05:51;101916.50;;;24.19;54.10
67099;BME280;54288;53.046;5.668;2023-06-10T08:08:16;101920.88;;;24.06;53.87
67099;BME280;54288;53.046;5.668;2023-06-10T08:10:42;101915.84;;;24.16;54.88
67099;BME280;54288;53.046;5.668;2023-06-10T08:13:08;101921.72;;;24.36;53.63
67099;BME280;54288;53.046;5.668;2023-06-10T08:15:34;101916.53;;;24.33;53.31
67099;BME280;54288;53.046;5.668;2023-06-10T08:18:00;101919.31;;;24.75;52.60
67099;BME280;54288;53.046;5.668;2023-06-10T08:20:25;101916.06;;;24.70;49.78
67099;BME280;54288;53.046;5.668;2023-06-10T08:22:51;101923.25;;;24.84;49.40
67099;BME280;54288;53.046;5.668;2023-06-10T08:25:17;101922.84;;;24.90;50.94
67099;BME280;54288;53.046;5.668;2023-06-10T08:27:43;101930.44;;;24.54;52.25
67099;BME280;54288;53.046;5.668;2023-06-10T08:30:09;101933.09;;;24.97;50.22
67099;BME280;54288;53.046;5.668;2023-06-10T08:32:36;101932.81;;;24.74;51.03
67099;BME280;54288;53.046;5.668;2023-06-10T08:35:02;101925.06;;;24.69;49.30
67099;BME280;54288;53.046;5.668;2023-06-10T08:37:31;101924.28;;;25.09;49.11
67099;BME280;54288;53.046;5.668;2023-06-10T08:39:56;101922.84;;;25.32;48.77
67099;BME280;54288;53.046;5.668;2023-06-10T08:42:28;101915.44;;;25.35;48.47
67099;BME280;54288;53.046;5.668;2023-06-10T08:44:55;101915.19;;;25.12;49.49
67099;BME280;54288;53.046;5.668;2023-06-10T08:47:23;101917.06;;;25.38;48.30
67099;BME280;54288;53.046;5.668;2023-06-10T08:49:50;101920.25;;;25.71;47.24
67099;BME280;54288;53.046;5.668;2023-06-10T08:52:19;101925.44;;;25.60;47.55
67099;BME280;54288;53.046;5.668;2023-06-10T08:55:05;101917.97;;;25.24;47.99
67099;BME280;54288;53.046;5.668;2023-06-10T08:57:36;101922.00;;;25.58;48.11
67099;BME280;54288;53.046;5.668;2023-06-10T09:00:03;101920.66;;;25.91;46.01
67099;BME280;54288;53.046;5.668;2023-06-10T09:02:31;101922.97;;;25.83;44.60
67099;BME280;54288;53.046;5.668;2023-06-10T09:05:00;101922.34;;;25.66;46.22
67099;BME280;54288;53.046;5.668;2023-06-10T09:07:26;101920.25;;;25.71;44.92
67099;BME280;54288;53.046;5.668;2023-06-10T09:09:53;101932.34;;;26.17;45.42
67099;BME280;54288;53.046;5.668;2023-06-10T09:12:20;101910.56;;;26.34;42.50
67099;BME280;54288;53.046;5.668;2023-06-10T09:14:45;101915.63;;;26.51;42.83
67099;BME280;54288;53.046;5.668;2023-06-10T09:17:12;101912.69;;;26.29;43.44
67099;BME280;54288;53.046;5.668;2023-06-10T09:19:40;101913.69;;;26.53;42.17
67099;BME280;54288;53.046;5.668;2023-06-10T09:22:05;101915.09;;;26.96;42.90
67099;BME280;54288;53.046;5.668;2023-06-10T09:24:32;101914.44;;;27.17;41.37
67099;BME280;54288;53.046;5.668;2023-06-10T09:27:08;101911.34;;;26.98;42.98
67099;BME280;54288;53.046;5.668;2023-06-10T09:40:51;101911.84;;;27.64;38.25
67099;BME280;54288;53.046;5.668;2023-06-10T09:43:18;101910.22;;;27.62;37.91
67099;BME280;54288;53.046;5.668;2023-06-10T09:45:44;101910.81;;;27.78;37.27
67099;BME280;54288;53.046;5.668;2023-06-10T09:48:10;101915.81;;;27.59;36.53
67099;BME280;54288;53.046;5.668;2023-06-10T09:50:42;101917.44;;;27.13;36.90
67099;BME280;54288;53.046;5.668;2023-06-10T09:53:09;101915.97;;;26.96;36.33
67099;BME280;54288;53.046;5.668;2023-06-10T09:55:40;101920.00;;;27.27;37.66
67099;BME280;54288;53.046;5.668;2023-06-10T09:58:06;101913.94;;;27.48;35.69
67099;BME280;54288;53.046;5.668;2023-06-10T10:00:36;101919.84;;;27.77;35.16
67099;BME280;54288;53.046;5.668;2023-06-10T10:03:02;101914.38;;;28.02;34.79
67099;BME280;54288;53.046;5.668;2023-06-10T10:05:28;101915.22;;;28.02;34.34
67099;BME280;54288;53.046;5.668;2023-06-10T10:07:55;101911.56;;;28.14;34.35
67099;BME280;54288;53.046;5.668;2023-06-10T10:10:22;101914.69;;;27.74;32.68
67099;BME280;54288;53.046;5.668;2023-06-10T10:12:50;101913.75;;;27.98;33.29
67099;BME280;54288;53.046;5.668;2023-06-10T10:15:17;101905.69;;;27.62;33.06
67099;BME280;54288;53.046;5.668;2023-06-10T10:18:00;101905.22;;;27.81;32.54
67099;BME280;54288;53.046;5.668;2023-06-10T10:20:33;101909.66;;;27.93;33.01
67099;BME280;54288;53.046;5.668;2023-06-10T10:23:03;101902.31;;;27.95;32.94
67099;BME280;54288;53.046;5.668;2023-06-10T10:25:35;101907.78;;;28.17;32.31
67099;BME280;54288;53.046;5.668;2023-06-10T10:28:12;101910.53;;;27.57;31.89
67099;BME280;54288;53.046;5.668;2023-06-10T10:30:41;101906.09;;;27.69;31.71
67099;BME280;54288;53.046;5.668;2023-06-10T10:33:21;101902.25;;;27.60;32.43
67099;BME280;54288;53.046;5.668;2023-06-10T10:35:49;101900.28;;;27.98;31.34
67099;BME280;54288;53.046;5.668;2023-06-10T10:38:15;101897.88;;;28.17;30.43
67099;BME280;54288;53.046;5.668;2023-06-10T10:40:43;101899.44;;;28.09;29.41
67099;BME280;54288;53.046;5.668;2023-06-10T10:43:11;101906.03;;;28.05;30.34
67099;BME280;54288;53.046;5.668;2023-06-10T10:45:37;101905.19;;;28.04;30.51
67099;BME280;54288;53.046;5.668;2023-06-10T10:48:08;101891.41;;;28.20;31.35
67099;BME280;54288;53.046;5.668;2023-06-10T10:50:37;101898.09;;;28.14;30.66
67099;BME280;54288;53.046;5.668;2023-06-10T10:53:04;101899.84;;;28.15;31.25
67099;BME280;54288;53.046;5.668;2023-06-10T10:55:31;101895.56;;;28.24;29.86
67099;BME280;54288;53.046;5.668;2023-06-10T10:58:06;101890.53;;;28.54;30.76
67099;BME280;54288;53.046;5.668;2023-06-10T11:00:37;101884.41;;;28.63;32.45
67099;BME280;54288;53.046;5.668;2023-06-10T11:08:04;101879.91;;;28.96;28.02
67099;BME280;54288;53.046;5.668;2023-06-10T11:10:33;101884.53;;;29.16;28.41
67099;BME280;54288;53.046;5.668;2023-06-10T11:13:05;101866.78;;;29.03;29.84
67099;BME280;54288;53.046;5.668;2023-06-10T11:15:31;101874.50;;;29.18;28.50
67099;BME280;54288;53.046;5.668;2023-06-10T11:18:08;101867.25;;;29.19;30.30
67099;BME280;54288;53.046;5.668;2023-06-10T11:31:30;101855.22;;;29.23;29.90
67099;BME280;54288;53.046;5.668;2023-06-10T11:33:58;101860.53;;;29.67;31.83
67099;BME280;54288;53.046;5.668;2023-06-10T11:36:25;101854.28;;;30.07;30.63
67099;BME280;54288;53.046;5.668;2023-06-10T11:38:56;101867.06;;;29.85;29.85
67099;BME280;54288;53.046;5.668;2023-06-10T11:41:24;101865.16;;;29.96;28.89
67099;BME280;54288;53.046;5.668;2023-06-10T11:43:52;101857.13;;;29.85;29.93
67099;BME280;54288;53.046;5.668;2023-06-10T11:46:18;101864.06;;;29.67;27.73
67099;BME280;54288;53.046;5.668;2023-06-10T11:48:55;101866.97;;;29.44;29.46
67099;BME280;54288;53.046;5.668;2023-06-10T11:51:24;101858.72;;;29.56;29.04
67099;BME280;54288;53.046;5.668;2023-06-10T11:53:50;101853.97;;;29.80;29.39
67099;BME280;54288;53.046;5.668;2023-06-10T11:56:23;101852.13;;;30.01;28.21
67099;BME280;54288;53.046;5.668;2023-06-10T11:59:07;101851.53;;;29.98;28.54
67099;BME280;54288;53.046;5.668;2023-06-10T12:01:38;101848.63;;;29.90;29.74
67099;BME280;54288;53.046;5.668;2023-06-10T12:04:10;101847.94;;;29.77;28.65
67099;BME280;54288;53.046;5.668;2023-06-10T12:06:46;101855.66;;;30.13;28.53
67099;BME280;54288;53.046;5.668;2023-06-10T12:09:27;101842.50;;;29.88;29.53
67099;BME280;54288;53.046;5.668;2023-06-10T12:12:03;101839.84;;;30.29;29.16
67099;BME280;54288;53.046;5.668;2023-06-10T12:14:51;101837.28;;;30.27;28.07
67099;BME280;54288;53.046;5.668;2023-06-10T12:17:21;101830.34;;;30.14;28.04
67099;BME280;54288;53.046;5.668;2023-06-10T12:19:48;101824.75;;;30.26;29.71
67099;BME280;54288;53.046;5.668;2023-06-10T12:22:14;101829.53;;;30.43;29.59
67099;BME280;54288;53.046;5.668;2023-06-10T12:27:26;101832.75;;;29.96;29.22
67099;BME280;54288;53.046;5.668;2023-06-10T12:29:56;101822.50;;;30.11;27.27
67099;BME280;54288;53.046;5.668;2023-06-10T12:32:43;101822.69;;;29.78;28.15
67099;BME280;54288;53.046;5.668;2023-06-10T12:35:11;101814.38;;;30.31;27.30
67099;BME280;54288;53.046;5.668;2023-06-10T12:37:40;101826.97;;;30.01;27.23
67099;BME280;54288;53.046;5.668;2023-06-10T12:40:06;101821.75;;;30.29;27.13
67099;BME280;54288;53.046;5.668;2023-06-10T12:42:35;101811.38;;;30.55;27.57
67099;BME280;54288;53.046;5.668;2023-06-10T12:45:03;101818.56;;;30.45;26.79
67099;BME280;54288;53.046;5.668;2023-06-10T12:47:30;101821.34;;;30.34;26.83
67099;BME280;54288;53.046;5.668;2023-06-10T12:49:57;101814.91;;;30.46;25.84
67099;BME280;54288;53.046;5.668;2023-06-10T12:52:24;101817.16;;;30.41;25.25
67099;BME280;54288;53.046;5.668;2023-06-10T12:54:50;101811.66;;;30.31;25.88
67099;BME280;54288;53.046;5.668;2023-06-10T12:57:17;101809.66;;;30.24;26.97
67099;BME280;54288;53.046;5.668;2023-06-10T12:59:43;101809.16;;;30.39;27.73
67099;BME280;54288;53.046;5.668;2023-06-10T13:02:16;101806.75;;;30.66;26.00
67099;BME280;54288;53.046;5.668;2023-06-10T13:04:45;101807.81;;;30.54;26.58
67099;BME280;54288;53.046;5.668;2023-06-10T13:07:11;101798.00;;;30.83;25.76
67099;BME280;54288;53.046;5.668;2023-06-10T13:09:37;101813.94;;;30.56;24.69
67099;BME280;54288;53.046;5.668;2023-06-10T13:12:03;101799.63;;;30.45;25.72
67099;BME280;54288;53.046;5.668;2023-06-10T13:14:29;101798.50;;;30.68;25.42
67099;BME280;54288;53.046;5.668;2023-06-10T13:16:55;101796.78;;;30.67;25.38
67099;BME280;54288;53.046;5.668;2023-06-10T13:19:23;101802.34;;;30.45;24.02
67099;BME280;54288;53.046;5.668;2023-06-10T13:21:49;101806.75;;;30.16;25.13
67099;BME280;54288;53.046;5.668;2023-06-10T13:24:15;101796.38;;;30.00;26.40
67099;BME280;54288;53.046;5.668;2023-06-10T13:26:41;101799.13;;;30.30;25.53
67099;BME280;54288;53.046;5.668;2023-06-10T13:29:06;101798.38;;;30.49;26.71
67099;BME280;54288;53.046;5.668;2023-06-10T13:31:33;101792.81;;;30.41;26.41
67099;BME280;54288;53.046;5.668;2023-06-10T13:33:59;101790.91;;;30.32;26.72
67099;BME280;54288;53.046;5.668;2023-06-10T13:36:25;101791.09;;;30.19;26.05
67099;BME280;54288;53.046;5.668;2023-06-10T13:38:50;101789.53;;;30.37;26.64
67099;BME280;54288;53.046;5.668;2023-06-10T13:41:16;101792.59;;;30.93;28.00
67099;BME280;54288;53.046;5.668;2023-06-10T13:43:42;101793.72;;;30.81;34.05
67099;BME280;54288;53.046;5.668;2023-06-10T13:46:08;101782.63;;;30.54;37.96
67099;BME280;54288;53.046;5.668;2023-06-10T13:48:33;101792.94;;;30.39;41.39
67099;BME280;54288;53.046;5.668;2023-06-10T13:50:59;101799.78;;;30.02;41.57
67099;BME280;54288;53.046;5.668;2023-06-10T13:53:25;101795.97;;;29.53;43.67
67099;BME280;54288;53.046;5.668;2023-06-10T13:55:51;101796.66;;;29.34;44.82
67099;BME280;54288;53.046;5.668;2023-06-10T14:00:49;101790.66;;;29.31;46.89
67099;BME280;54288;53.046;5.668;2023-06-10T14:03:14;101787.41;;;29.48;47.76
67099;BME280;54288;53.046;5.668;2023-06-10T14:05:40;101788.34;;;29.26;48.65
67099;BME280;54288;53.046;5.668;2023-06-10T14:08:07;101787.56;;;29.04;48.64
67099;BME280;54288;53.046;5.668;2023-06-10T14:10:33;101783.41;;;29.00;48.82
67099;BME280;54288;53.046;5.668;2023-06-10T14:12:58;101786.19;;;29.09;49.04
67099;BME280;54288;53.046;5.668;2023-06-10T14:15:25;101785.97;;;29.12;49.22
67099;BME280;54288;53.046;5.668;2023-06-10T14:17:51;101789.28;;;28.94;49.89
67099;BME280;54288;53.046;5.668;2023-06-10T14:20:17;101790.75;;;28.87;51.13
67099;BME280;54288;53.046;5.668;2023-06-10T14:22:43;101786.44;;;29.06;48.26
67099;BME280;54288;53.046;5.668;2023-06-10T14:25:08;101783.41;;;29.00;49.17
67099;BME280;54288;53.046;5.668;2023-06-10T14:27:34;101785.59;;;28.84;47.34
67099;BME280;54288;53.046;5.668;2023-06-10T14:30:00;101778.75;;;28.58;50.25
67099;BME280;54288;53.046;5.668;2023-06-10T14:32:25;101780.47;;;28.81;51.06
67099;BME280;54288;53.046;5.668;2023-06-10T14:34:51;101782.03;;;28.83;50.77
67099;BME280;54288;53.046;5.668;2023-06-10T14:37:17;101781.22;;;28.61;51.54
67099;BME280;54288;53.046;5.668;2023-06-10T14:39:42;101779.81;;;28.88;50.92